Time;durP1;ratioP1;P1;durP2;ratioP2;P2;SDS_P1;SDS_P2;PMS_P1;PMS_P2;Temp;Humidity;BMP_temperature;BMP_pressure;BME280_temperature;BME280_humidity;BME280_pressure;Samples;Min_cycle;Max_cycle;Signal;HPM_P1;HPM_P2
2021/05/31 00:01:30;;;;;;;7.13;1.90;;;;;;;9.33;57.36;97098.50;3507158;40;20866;-71
2021/05/31 00:03:58;;;;;;;4.90;2.30;;;;;;;9.13;58.90;97107.47;3507568;40;21204;-72
2021/05/31 00:06:25;;;;;;;2.80;1.97;;;;;;;8.82;60.19;97099.53;3498855;40;20769;-73
2021/05/31 00:08:53;;;;;;;4.93;2.30;;;;;;;8.60;60.94;97098.97;3506436;40;20454;-71
2021/05/31 00:11:21;;;;;;;4.23;1.97;;;;;;;8.62;61.15;97097.13;3503612;40;20532;-72
2021/05/31 00:13:48;;;;;;;9.27;2.90;;;;;;;8.56;61.51;97092.22;3506822;40;20442;-72
2021/05/31 00:16:16;;;;;;;3.40;2.30;;;;;;;8.56;61.55;97093.06;3504413;40;20734;-71
2021/05/31 00:18:44;;;;;;;8.70;2.77;;;;;;;8.50;61.61;97091.63;3506224;40;20439;-71
2021/05/31 00:21:11;;;;;;;7.37;2.80;;;;;;;8.43;61.59;97081.59;3505009;40;20520;-71
2021/05/31 00:23:39;;;;;;;4.73;2.70;;;;;;;8.49;61.53;97089.13;3507228;40;20665;-69
2021/05/31 00:26:08;;;;;;;8.80;2.63;;;;;;;8.47;61.37;97077.91;3508247;40;20870;-72
2021/05/31 00:28:36;;;;;;;3.97;2.00;;;;;;;8.35;61.66;97078.50;3506371;40;20490;-71
2021/05/31 00:31:04;;;;;;;7.10;2.10;;;;;;;8.24;61.79;97076.47;3506456;40;20534;-71
2021/05/31 00:33:31;;;;;;;6.00;2.63;;;;;;;8.18;62.26;97068.97;3497247;40;20815;-71
2021/05/31 00:35:59;;;;;;;6.00;2.40;;;;;;;8.01;63.04;97072.41;3506148;40;20436;-72
2021/05/31 00:38:27;;;;;;;3.50;2.17;;;;;;;7.98;62.66;97068.22;3507227;40;20486;-72
2021/05/31 00:40:54;;;;;;;3.73;2.40;;;;;;;7.93;62.68;97068.41;3506425;40;20858;-73
2021/05/31 00:43:22;;;;;;;5.50;2.23;;;;;;;7.95;63.02;97070.13;3506129;40;20542;-73
2021/05/31 00:45:50;;;;;;;6.33;2.57;;;;;;;7.76;63.98;97071.03;3498212;40;21143;-72
2021/05/31 00:48:18;;;;;;;4.73;2.30;;;;;;;7.85;63.85;97064.53;3509179;40;20455;-71
2021/05/31 00:50:45;;;;;;;4.53;2.60;;;;;;;7.88;63.67;97061.78;3507964;40;20467;-73
2021/05/31 00:53:15;;;;;;;6.60;2.87;;;;;;;7.87;63.78;97062.69;3508953;40;20454;-72
2021/05/31 00:55:43;;;;;;;5.30;2.10;;;;;;;7.79;63.76;97059.63;3507892;40;20463;-72
2021/05/31 00:58:11;;;;;;;4.87;2.20;;;;;;;7.74;64.16;97067.66;3508365;40;20562;-73
2021/05/31 01:00:40;;;;;;;4.90;2.70;;;;;;;7.80;64.08;97061.28;3508524;40;20459;-72
2021/05/31 01:03:07;;;;;;;7.13;2.80;;;;;;;7.71;64.45;97062.63;3505883;40;20467;-72
2021/05/31 01:05:35;;;;;;;5.10;2.93;;;;;;;7.46;64.97;97048.19;3507951;40;20430;-73
2021/05/31 01:08:09;;;;;;;4.13;2.60;;;;;;;7.41;65.65;97057.13;3508081;40;20856;-72
2021/05/31 01:10:47;;;;;;;5.00;3.37;;;;;;;7.24;66.37;97048.38;3509030;40;20697;-74
2021/05/31 01:13:22;;;;;;;6.73;3.00;;;;;;;7.35;66.06;97049.63;3507299;40;20502;-72
2021/05/31 01:16:05;;;;;;;8.43;3.30;;;;;;;7.39;65.55;97051.16;3506117;40;20486;-70
2021/05/31 01:18:39;;;;;;;8.30;2.97;;;;;;;7.45;65.54;97056.94;3506484;40;20470;-71
2021/05/31 01:21:27;;;;;;;7.60;2.40;;;;;;;7.42;65.69;97051.03;3507315;40;20482;-70
2021/05/31 01:24:03;;;;;;;7.40;2.70;;;;;;;7.31;65.68;97039.38;3507728;40;20923;-71
2021/05/31 01:26:43;;;;;;;5.60;3.20;;;;;;;7.31;66.05;97048.91;3506154;40;20476;-71
2021/05/31 01:29:13;;;;;;;5.90;3.10;;;;;;;7.39;65.65;97048.56;3506746;40;20463;-72
2021/05/31 01:31:47;;;;;;;6.23;3.17;;;;;;;7.24;66.37;97053.59;3508025;40;20548;-70
2021/05/31 01:34:19;;;;;;;5.50;3.10;;;;;;;7.18;66.52;97047.84;3509021;40;20485;-71
2021/05/31 01:36:52;;;;;;;9.50;2.97;;;;;;;7.05;66.88;97045.81;3507425;40;20779;-71
2021/05/31 01:39:23;;;;;;;5.70;3.43;;;;;;;6.98;67.25;97043.56;3507403;40;20448;-71
2021/05/31 01:41:56;;;;;;;4.77;2.50;;;;;;;7.06;67.26;97044.91;3506167;40;20791;-71
2021/05/31 01:44:25;;;;;;;9.87;3.87;;;;;;;7.06;67.36;97046.69;3505351;40;20542;-70
2021/05/31 01:46:54;;;;;;;5.53;2.93;;;;;;;7.15;67.01;97041.00;3506639;40;20851;-71
2021/05/31 01:49:23;;;;;;;6.73;3.47;;;;;;;7.27;66.73;97042.19;3505105;40;20470;-71
2021/05/31 01:51:52;;;;;;;4.60;2.87;;;;;;;7.12;66.77;97038.56;3508364;40;20463;-71
2021/05/31 01:54:22;;;;;;;7.67;3.80;;;;;;;7.08;66.89;97040.47;3508955;40;20475;-71
2021/05/31 01:56:51;;;;;;;5.63;3.03;;;;;;;7.00;67.03;97029.56;3508114;40;20780;-71
2021/05/31 01:59:20;;;;;;;7.13;2.90;;;;;;;7.05;66.46;97030.19;3507648;40;20832;-70
2021/05/31 02:01:52;;;;;;;3.93;2.50;;;;;;;6.94;66.79;97029.88;3507919;40;21088;-70
2021/05/31 02:04:20;;;;;;;6.20;2.70;;;;;;;7.02;66.29;97032.13;3495067;40;21098;-70
2021/05/31 02:06:49;;;;;;;4.17;2.63;;;;;;;6.95;66.78;97030.72;3505491;40;20463;-72
2021/05/31 02:09:17;;;;;;;6.50;3.03;;;;;;;6.73;67.14;96996.09;3507553;40;20858;-71
2021/05/31 02:11:49;;;;;;;5.83;3.10;;;;;;;6.89;67.28;97034.44;3507854;40;20617;-70
2021/05/31 02:14:23;;;;;;;5.33;2.90;;;;;;;6.79;67.82;97030.59;3507594;40;20681;-73
2021/05/31 02:17:01;;;;;;;9.70;3.30;;;;;;;6.50;68.64;97028.41;3507810;40;20887;-69
2021/05/31 02:19:30;;;;;;;8.10;3.30;;;;;;;6.48;68.58;97026.78;3507201;40;20435;-72
2021/05/31 02:21:59;;;;;;;6.67;2.83;;;;;;;6.31;68.91;97024.94;3497252;40;20466;-70
2021/05/31 02:24:27;;;;;;;5.93;3.30;;;;;;;6.40;68.96;97027.13;3509862;40;20509;-71
2021/05/31 02:26:55;;;;;;;11.60;2.90;;;;;;;6.48;68.37;97027.63;3507157;40;20743;-70
2021/05/31 02:29:23;;;;;;;7.87;2.87;;;;;;;6.51;68.00;97029.25;3505574;40;20550;-69
2021/05/31 02:31:56;;;;;;;4.23;3.00;;;;;;;6.51;68.06;97030.09;3514020;40;20483;-72
2021/05/31 02:34:24;;;;;;;5.77;3.53;;;;;;;6.49;68.28;97029.34;3506454;40;20443;-70
2021/05/31 02:36:53;;;;;;;5.30;2.83;;;;;;;6.47;68.18;97033.75;3508159;40;20709;-70
2021/05/31 02:39:21;;;;;;;4.10;2.73;;;;;;;6.42;68.48;97033.13;3508654;40;20541;-70
2021/05/31 02:41:50;;;;;;;6.13;2.83;;;;;;;6.35;68.40;97021.31;3498352;40;20561;-70
2021/05/31 02:44:17;;;;;;;6.23;3.03;;;;;;;6.25;68.91;97020.03;3506807;40;20597;-69
2021/05/31 02:46:45;;;;;;;6.73;2.77;;;;;;;6.31;68.80;97027.53;3505758;40;20455;-69
2021/05/31 02:49:15;;;;;;;4.37;3.03;;;;;;;6.31;69.04;97027.53;3506488;40;20989;-69
2021/05/31 02:51:44;;;;;;;3.20;2.60;;;;;;;6.25;68.51;97004.41;3506479;40;20467;-70
2021/05/31 02:54:13;;;;;;;3.97;2.87;;;;;;;6.25;68.57;97026.09;3507784;40;20836;-68
2021/05/31 02:56:40;;;;;;;5.10;2.57;;;;;;;6.20;68.74;97022.00;3507684;40;20566;-70
2021/05/31 02:59:08;;;;;;;5.60;2.33;;;;;;;6.09;68.86;97023.28;3506736;40;20459;-70
2021/05/31 03:01:35;;;;;;;3.73;2.60;;;;;;;6.06;69.23;97018.25;3507347;40;20907;-69
2021/05/31 03:04:03;;;;;;;10.80;2.60;;;;;;;6.04;68.59;97017.47;3506954;40;20689;-70
2021/05/31 03:06:32;;;;;;;4.10;2.30;;;;;;;6.02;68.83;97024.50;3508537;40;20459;-71
2021/05/31 03:08:59;;;;;;;4.07;2.40;;;;;;;5.94;69.07;97023.97;3510394;40;20444;-68
2021/05/31 03:11:27;;;;;;;3.57;2.27;;;;;;;5.94;69.04;97022.19;3496822;40;20753;-69
2021/05/31 03:13:54;;;;;;;4.03;2.13;;;;;;;6.05;68.50;97018.31;3506936;40;20940;-69
2021/05/31 03:16:22;;;;;;;4.67;2.27;;;;;;;5.99;68.37;97019.41;3505185;40;20465;-72
2021/05/31 03:18:50;;;;;;;4.87;2.33;;;;;;;5.83;69.15;97024.41;3506808;40;20447;-70
2021/05/31 03:21:17;;;;;;;4.90;2.90;;;;;;;5.85;69.55;97021.75;3497099;40;20491;-71
2021/05/31 03:23:47;;;;;;;5.30;2.53;;;;;;;5.48;70.69;97020.69;3509860;40;20930;-71
2021/05/31 03:26:14;;;;;;;4.17;2.53;;;;;;;5.66;70.23;97024.28;3498657;40;20903;-69
2021/05/31 03:28:41;;;;;;;4.80;2.60;;;;;;;5.80;69.79;97015.88;3496800;40;20934;-71
2021/05/31 03:31:09;;;;;;;4.57;2.77;;;;;;;5.84;69.47;97022.63;3507370;40;20901;-70
2021/05/31 03:33:36;;;;;;;5.60;2.77;;;;;;;5.95;69.01;97015.25;3499115;40;20733;-71
2021/05/31 03:36:05;;;;;;;7.20;2.73;;;;;;;6.05;68.81;97020.91;3506616;40;20515;-71
2021/05/31 03:38:32;;;;;;;6.80;2.87;;;;;;;6.14;68.36;97017.91;3508527;40;20471;-73
2021/05/31 03:41:01;;;;;;;7.50;2.50;;;;;;;6.22;68.19;97021.00;3506839;40;20483;-71
2021/05/31 03:43:28;;;;;;;6.83;2.43;;;;;;;6.31;67.53;97019.72;3506843;40;20864;-70
2021/05/31 03:45:56;;;;;;;7.40;2.57;;;;;;;6.25;67.72;97020.03;3505748;40;20715;-70
2021/05/31 03:48:23;;;;;;;9.53;3.00;;;;;;;6.08;68.22;97021.63;3496147;40;20978;-69
2021/05/31 03:51:07;;;;;;;5.43;2.50;;;;;;;5.71;69.55;97019.75;3505992;40;20565;-71
2021/05/31 03:53:35;;;;;;;8.07;2.20;;;;;;;5.57;70.21;97027.25;3510040;40;20448;-71
2021/05/31 03:56:05;;;;;;;5.17;2.90;;;;;;;5.52;70.37;97032.66;3507889;40;20542;-70
2021/05/31 03:58:33;;;;;;;5.70;2.30;;;;;;;5.53;70.05;97023.97;3506794;40;20460;-70
2021/05/31 04:01:02;;;;;;;2.93;2.27;;;;;;;5.61;69.84;97034.88;3505609;40;21097;-70
2021/05/31 04:03:30;;;;;;;5.30;2.87;;;;;;;5.40;70.60;97039.19;3505947;40;20990;-69
2021/05/31 04:06:13;;;;;;;6.73;2.90;;;;;;;5.31;70.96;97040.44;3496539;40;20840;-70
2021/05/31 04:11:34;;;;;;;5.37;3.07;;;;;;;5.54;70.45;97046.44;3504983;40;20467;-68
2021/05/31 04:14:07;;;;;;;7.50;3.10;;;;;;;5.43;70.79;97046.00;3507714;40;20462;-70
2021/05/31 04:16:36;;;;;;;5.33;2.90;;;;;;;5.62;70.33;97043.50;3507107;40;20459;-70
2021/05/31 04:19:04;;;;;;;11.10;4.07;;;;;;;5.59;70.35;97047.09;3507022;40;20490;-69
2021/05/31 04:21:31;;;;;;;5.17;2.70;;;;;;;5.68;70.45;97044.09;3505534;40;20600;-72
2021/05/31 04:23:59;;;;;;;5.87;2.83;;;;;;;5.64;70.34;97041.69;3507117;40;20956;-72
2021/05/31 04:26:29;;;;;;;8.30;3.80;;;;;;;5.75;70.34;97042.09;3496759;40;20475;-70
2021/05/31 04:28:56;;;;;;;4.63;3.00;;;;;;;5.71;70.74;97030.13;3498892;40;20471;-71
2021/05/31 04:31:24;;;;;;;11.10;4.23;;;;;;;5.96;70.19;97039.50;3507709;40;20840;-71
2021/05/31 04:33:53;;;;;;;5.00;2.93;;;;;;;6.04;70.16;97042.63;3509031;40;20444;-70
2021/05/31 04:36:21;;;;;;;11.10;3.83;;;;;;;5.75;70.40;97032.53;3498945;40;20455;-70
2021/05/31 04:39:00;;;;;;;8.90;3.03;;;;;;;6.01;69.52;97033.19;3507588;40;20978;-69
2021/05/31 04:41:29;;;;;;;6.47;3.17;;;;;;;5.60;71.96;97027.97;3509109;40;20470;-68
2021/05/31 04:43:56;;;;;;;5.67;3.60;;;;;;;6.04;70.46;97032.22;3500712;40;20770;-69
2021/05/31 04:46:24;;;;;;;9.03;3.60;;;;;;;6.24;69.97;97033.94;3507532;40;20738;-69
2021/05/31 04:48:54;;;;;;;8.93;3.87;;;;;;;6.08;70.21;97039.81;3509331;40;20440;-69
2021/05/31 04:51:21;;;;;;;11.30;4.03;;;;;;;6.41;69.13;97036.66;3506685;40;21139;-68
2021/05/31 04:53:57;;;;;;;9.90;4.33;;;;;;;6.39;68.68;97035.88;3499480;40;20466;-70
2021/05/31 04:56:25;;;;;;;6.70;3.73;;;;;;;6.48;68.88;97032.00;3507148;40;20883;-69
2021/05/31 04:58:56;;;;;;;8.53;3.73;;;;;;;6.77;68.28;97041.06;3509714;40;20549;-69
2021/05/31 05:01:24;;;;;;;12.10;3.90;;;;;;;7.09;68.15;97044.75;3507434;40;20477;-70
2021/05/31 05:03:54;;;;;;;9.83;3.97;;;;;;;7.12;67.98;97049.81;3499851;40;20561;-70
2021/05/31 05:06:22;;;;;;;6.43;3.57;;;;;;;7.41;67.01;97044.09;3507323;40;20792;-69
2021/05/31 05:08:51;;;;;;;4.53;3.03;;;;;;;7.18;68.54;97048.69;3507109;40;20678;-70
2021/05/31 05:11:22;;;;;;;11.00;4.40;;;;;;;7.51;67.73;97042.75;3499028;40;20796;-70
2021/05/31 05:13:56;;;;;;;5.60;2.80;;;;;;;7.83;66.33;97043.75;3510892;40;20451;-70
2021/05/31 05:16:23;;;;;;;8.73;3.30;;;;;;;8.07;65.80;97039.03;3508242;40;20874;-70
2021/05/31 05:18:54;;;;;;;5.40;3.17;;;;;;;8.35;64.85;97042.81;3509646;40;20437;-69
2021/05/31 05:21:22;;;;;;;8.83;3.13;;;;;;;8.47;65.03;97046.59;3508256;40;21186;-70
2021/05/31 05:23:50;;;;;;;6.70;3.30;;;;;;;8.39;65.08;97049.56;3507700;40;20591;-72
2021/05/31 05:26:19;;;;;;;7.50;3.40;;;;;;;8.28;65.82;97037.06;3508400;40;20907;-73
2021/05/31 05:28:47;;;;;;;9.90;3.87;;;;;;;8.30;65.18;97044.81;3506113;40;20486;-73
2021/05/31 05:31:17;;;;;;;5.50;3.27;;;;;;;8.27;64.66;97034.53;3508429;40;20772;-70
2021/05/31 05:33:45;;;;;;;6.83;3.80;;;;;;;8.42;64.46;97046.81;3509314;40;20732;-71
2021/05/31 05:36:20;;;;;;;6.60;3.77;;;;;;;8.52;65.01;97039.34;3499676;40;20478;-71
2021/05/31 05:39:13;;;;;;;4.97;3.00;;;;;;;8.61;65.27;97044.06;3509179;40;20922;-72
2021/05/31 05:41:50;;;;;;;6.97;3.93;;;;;;;8.74;64.88;97046.00;3498393;40;20601;-71
2021/05/31 05:44:45;;;;;;;10.13;4.10;;;;;;;8.87;64.54;97040.03;3506159;40;20509;-70
2021/05/31 05:50:17;;;;;;;5.87;4.30;;;;;;;9.30;64.61;97047.25;3486944;41;20878;-71
2021/05/31 05:52:46;;;;;;;7.20;4.00;;;;;;;9.53;64.28;97040.72;3486834;41;20544;-70
2021/05/31 05:55:17;;;;;;;7.13;3.77;;;;;;;9.65;63.50;97047.84;3497650;40;20803;-71
2021/05/31 05:57:46;;;;;;;5.00;3.47;;;;;;;9.82;61.33;97006.78;3507449;40;20528;-73
2021/05/31 06:00:18;;;;;;;7.93;3.30;;;;;;;10.06;61.53;97041.97;3507410;40;20459;-73
2021/05/31 06:02:47;;;;;;;4.90;3.50;;;;;;;10.52;60.70;97040.97;3506196;40;20474;-70
2021/05/31 06:05:15;;;;;;;4.43;2.97;;;;;;;10.87;59.77;97044.03;3506449;40;20558;-71
2021/05/31 06:07:43;;;;;;;4.50;2.80;;;;;;;11.22;57.78;97048.81;3505919;40;20848;-70
2021/05/31 06:10:12;;;;;;;4.30;3.30;;;;;;;11.35;58.59;97051.50;3508461;40;20979;-71
2021/05/31 06:12:39;;;;;;;7.60;3.53;;;;;;;11.79;55.49;97046.88;3507182;40;21008;-71
2021/05/31 06:15:09;;;;;;;6.80;3.53;;;;;;;11.91;56.63;97053.97;3505927;40;20948;-71
2021/05/31 06:17:37;;;;;;;8.13;2.57;;;;;;;12.12;52.36;97058.72;3507528;40;20475;-72
2021/05/31 06:20:08;;;;;;;8.13;2.80;;;;;;;12.00;52.86;97053.34;3507977;40;20731;-73
2021/05/31 06:22:39;;;;;;;11.93;3.33;;;;;;;12.63;50.59;97053.47;3506767;40;20487;-71
2021/05/31 06:25:09;;;;;;;3.93;2.80;;;;;;;12.25;52.58;97060.41;3507610;40;20820;-72
2021/05/31 06:27:37;;;;;;;5.13;2.37;;;;;;;12.55;51.67;97051.38;3508068;40;20519;-72
2021/05/31 06:30:07;;;;;;;7.70;2.63;;;;;;;12.66;50.96;97061.13;3510332;40;20856;-72
2021/05/31 06:32:34;;;;;;;5.73;2.73;;;;;;;12.91;49.84;97026.06;3507195;40;20463;-72
2021/05/31 06:35:02;;;;;;;18.03;2.40;;;;;;;13.39;48.36;97046.34;3507309;40;20454;-72
2021/05/31 06:37:37;;;;;;;18.83;3.20;;;;;;;13.09;49.40;97031.78;3504785;40;20494;-72
2021/05/31 06:40:08;;;;;;;39.23;4.70;;;;;;;13.60;48.43;97042.13;3506410;40;20474;-73
2021/05/31 06:42:37;;;;;;;63.30;8.23;;;;;;;13.85;47.86;97040.28;3494044;40;20987;-72
2021/05/31 06:45:07;;;;;;;25.63;2.50;;;;;;;14.05;46.81;97044.06;3509303;40;20861;-71
2021/05/31 06:47:35;;;;;;;17.53;3.00;;;;;;;14.04;47.17;97042.38;3507919;40;20961;-71
2021/05/31 06:50:03;;;;;;;29.20;4.40;;;;;;;14.37;46.81;97041.59;3506542;40;20838;-71
2021/05/31 06:52:32;;;;;;;14.17;2.60;;;;;;;15.03;45.65;97032.97;3505657;40;21151;-72
2021/05/31 06:55:02;;;;;;;12.77;3.20;;;;;;;14.76;44.49;97036.00;3507903;40;20454;-71
2021/05/31 06:57:29;;;;;;;9.40;2.43;;;;;;;15.38;45.10;97045.13;3515266;40;20479;-72
2021/05/31 06:59:58;;;;;;;7.97;2.23;;;;;;;15.15;42.83;97008.28;3525045;40;20783;-71
2021/05/31 07:02:27;;;;;;;4.60;2.33;;;;;;;15.07;43.27;97033.56;3524086;40;20830;-71
2021/05/31 07:04:55;;;;;;;17.83;3.70;;;;;;;15.43;42.92;97040.31;3510355;40;20716;-71
2021/05/31 07:07:23;;;;;;;12.10;2.03;;;;;;;15.49;41.39;97039.81;3505256;40;20474;-71
2021/05/31 07:09:52;;;;;;;20.10;4.43;;;;;;;14.23;44.94;97042.66;3507362;40;20710;-70
2021/05/31 07:12:20;;;;;;;6.10;1.87;;;;;;;14.35;44.60;97046.16;3506502;40;20469;-71
2021/05/31 07:14:51;;;;;;;13.30;3.37;;;;;;;14.89;42.41;97041.16;3507724;40;20985;-71
2021/05/31 07:17:19;;;;;;;2.67;1.67;;;;;;;14.46;43.82;97032.13;3507633;40;21012;-70
2021/05/31 07:19:47;;;;;;;9.20;2.13;;;;;;;14.78;42.46;97032.28;3506170;40;20854;-73
2021/05/31 07:22:21;;;;;;;11.93;2.67;;;;;;;14.24;42.33;97040.88;3506745;40;20490;-72
2021/05/31 07:24:56;;;;;;;4.30;2.03;;;;;;;15.45;40.82;97019.91;3508987;40;20917;-74
2021/05/31 07:27:24;;;;;;;15.33;2.60;;;;;;;16.08;39.15;97041.13;3499080;40;20486;-73
2021/05/31 07:29:52;;;;;;;3.17;1.73;;;;;;;15.56;39.21;97041.00;3506559;40;20769;-74
2021/05/31 07:32:20;;;;;;;14.97;2.23;;;;;;;14.98;40.89;97032.50;3496088;40;20870;-75
2021/05/31 07:35:15;;;;;;;23.87;3.87;;;;;;;15.13;40.39;97015.47;3509204;40;21063;-74
2021/05/31 07:37:43;;;;;;;28.10;4.10;;;;;;;15.20;40.05;97040.38;3507871;40;20862;-74
2021/05/31 07:40:15;;;;;;;20.93;2.27;;;;;;;16.04;39.07;97037.06;3506819;40;20526;-74
2021/05/31 07:42:44;;;;;;;8.27;2.20;;;;;;;15.95;39.56;97038.66;3506087;40;20486;-73
2021/05/31 07:45:14;;;;;;;10.43;2.40;;;;;;;16.20;38.24;97044.53;3498276;40;20490;-75
2021/05/31 07:47:42;;;;;;;4.40;1.77;;;;;;;16.71;38.17;97040.22;3505404;40;20785;-74
2021/05/31 07:50:11;;;;;;;2.83;1.93;;;;;;;17.08;37.54;97045.81;3497879;40;20487;-75
2021/05/31 07:52:39;;;;;;;15.33;2.30;;;;;;;15.91;39.50;97036.44;3498041;40;20498;-75
2021/05/31 07:55:11;;;;;;;19.73;2.87;;;;;;;15.90;39.16;97040.88;3510253;40;20835;-73
2021/05/31 07:57:41;;;;;;;8.20;2.70;;;;;;;16.48;38.33;97028.97;3507917;40;20859;-75
2021/05/31 08:00:11;;;;;;;5.07;1.83;;;;;;;16.16;38.55;97037.84;3506095;40;20554;-74
2021/05/31 08:02:41;;;;;;;316.77;166.03;;;;;;;16.38;39.35;97024.47;3506194;40;20486;-74
2021/05/31 08:05:13;;;;;;;18.53;6.27;;;;;;;16.23;39.83;97030.22;3505292;40;20961;-74
2021/05/31 08:07:41;;;;;;;7.10;2.10;;;;;;;17.00;38.91;97027.13;3506780;40;20463;-75
2021/05/31 08:10:10;;;;;;;5.40;1.80;;;;;;;18.00;37.75;97022.63;3509564;40;20463;-74
2021/05/31 08:12:39;;;;;;;5.83;2.10;;;;;;;17.33;37.96;97010.06;3507688;40;21166;-73
2021/05/31 08:15:08;;;;;;;7.60;2.30;;;;;;;18.06;37.29;97024.72;3506049;40;20904;-72
2021/05/31 08:17:36;;;;;;;7.23;2.17;;;;;;;17.65;38.40;97029.31;3506423;40;20535;-71
2021/05/31 08:20:05;;;;;;;7.57;2.10;;;;;;;18.41;36.82;97017.94;3508608;40;20443;-72
2021/05/31 08:22:33;;;;;;;4.27;1.83;;;;;;;18.65;34.82;97017.44;3507688;40;20482;-73
2021/05/31 08:25:01;;;;;;;15.23;1.77;;;;;;;18.98;34.79;97026.66;3508545;40;20900;-73
2021/05/31 08:27:29;;;;;;;33.70;15.43;;;;;;;18.71;35.12;97030.94;3506831;40;20606;-72
2021/05/31 08:29:58;;;;;;;3.60;2.37;;;;;;;19.21;34.30;97023.59;3497218;40;20470;-73
2021/05/31 08:32:25;;;;;;;4.63;2.23;;;;;;;19.36;34.33;97011.47;3504570;40;20478;-72
2021/05/31 08:34:56;;;;;;;7.23;2.07;;;;;;;19.16;33.98;97019.56;3505688;40;20855;-72
2021/05/31 08:37:24;;;;;;;2.80;1.50;;;;;;;19.59;32.66;97013.72;3502768;40;20480;-72
2021/05/31 08:39:54;;;;;;;2.30;1.70;;;;;;;19.33;32.28;97017.09;3505859;40;20528;-72
2021/05/31 08:42:22;;;;;;;27.00;16.70;;;;;;;19.47;30.88;97013.94;3497297;40;20868;-72
2021/05/31 08:44:50;;;;;;;12.63;3.07;;;;;;;19.90;31.21;97012.34;3508931;40;20459;-73
2021/05/31 08:47:19;;;;;;;1.60;1.10;;;;;;;19.63;30.82;97018.56;3507810;40;20993;-73
2021/05/31 08:49:50;;;;;;;2.20;1.60;;;;;;;18.45;30.68;97014.03;3508193;40;20863;-72
2021/05/31 08:52:17;;;;;;;5.93;2.07;;;;;;;18.86;33.17;97010.13;3507589;40;20505;-72
2021/05/31 08:54:45;;;;;;;2.70;1.63;;;;;;;19.64;30.69;97014.06;3509262;40;20818;-73
2021/05/31 08:57:12;;;;;;;10.37;1.87;;;;;;;20.12;31.25;97012.84;3499714;40;20855;-71
2021/05/31 08:59:40;;;;;;;11.50;1.73;;;;;;;19.27;29.90;97013.22;3510302;40;20526;-72
2021/05/31 09:02:08;;;;;;;5.50;2.03;;;;;;;18.06;32.84;97014.13;3507734;40;20564;-71
2021/05/31 09:04:46;;;;;;;2.83;1.40;;;;;;;19.58;32.17;97014.69;3498834;40;20906;-71
2021/05/31 09:07:13;;;;;;;9.00;1.90;;;;;;;19.27;30.79;96996.47;3508197;40;20450;-71
2021/05/31 09:09:43;;;;;;;24.03;2.77;;;;;;;18.86;32.17;97009.28;3499731;40;20844;-71
2021/05/31 09:12:12;;;;;;;6.77;2.60;;;;;;;19.85;32.34;97006.66;3508262;40;20914;-73
2021/05/31 09:14:43;;;;;;;6.00;1.53;;;;;;;19.37;30.85;96999.88;3506915;40;20690;-72
2021/05/31 09:17:10;;;;;;;11.60;2.00;;;;;;;19.84;30.02;97005.00;3508127;40;20781;-73
2021/05/31 09:19:49;;;;;;;4.50;1.70;;;;;;;19.81;31.48;97005.28;3508274;40;20732;-72
2021/05/31 09:22:21;;;;;;;5.50;1.67;;;;;;;19.42;31.14;97000.25;3507499;40;20859;-73
2021/05/31 09:24:59;;;;;;;2.73;1.90;;;;;;;18.20;32.90;97000.41;3508549;40;20914;-73
2021/05/31 09:27:27;;;;;;;58.43;36.87;;;;;;;19.90;32.63;97000.88;3507675;40;20501;-74
2021/05/31 09:29:57;;;;;;;6.00;1.67;;;;;;;19.32;32.17;97004.81;3509217;40;20919;-73
2021/05/31 09:32:24;;;;;;;6.73;2.07;;;;;;;19.91;29.33;96999.88;3505416;40;20836;-72
2021/05/31 09:35:03;;;;;;;16.93;2.27;;;;;;;19.45;33.33;96997.31;3507529;40;20860;-72
2021/05/31 09:37:31;;;;;;;3.63;1.67;;;;;;;19.47;31.34;96992.69;3507211;40;20862;-71
2021/05/31 09:40:02;;;;;;;12.10;1.73;;;;;;;20.33;32.55;96984.06;3509611;40;20448;-71
2021/05/31 09:42:31;;;;;;;28.27;2.13;;;;;;;20.92;30.53;96978.88;3508245;40;20483;-72
2021/05/31 09:45:01;;;;;;;8.30;1.63;;;;;;;20.84;31.13;96981.53;3507918;40;20859;-72
2021/05/31 09:47:31;;;;;;;12.03;1.40;;;;;;;21.37;30.48;96987.50;3508377;40;20609;-72
2021/05/31 09:49:58;;;;;;;11.93;2.20;;;;;;;21.93;28.98;96985.03;3507520;40;20883;-72
2021/05/31 09:52:27;;;;;;;3.60;2.27;;;;;;;20.94;29.03;96984.06;3507186;40;20911;-72
2021/05/31 09:54:55;;;;;;;4.53;1.73;;;;;;;21.02;31.29;96986.72;3507142;40;20478;-72
2021/05/31 09:57:25;;;;;;;3.47;1.80;;;;;;;21.15;29.32;96986.28;3508378;40;20501;-71
2021/05/31 09:59:55;;;;;;;20.57;1.80;;;;;;;21.71;28.37;96983.88;3507781;40;20517;-72
2021/05/31 10:02:39;;;;;;;7.83;1.57;;;;;;;21.63;27.18;96992.72;3499472;40;20841;-71
2021/05/31 10:05:14;;;;;;;8.03;2.10;;;;;;;19.39;29.62;97005.88;3507870;40;21186;-72
2021/05/31 10:08:00;;;;;;;4.13;1.50;;;;;;;19.39;30.08;96986.47;3507773;40;20465;-72
2021/05/31 10:10:34;;;;;;;5.47;1.90;;;;;;;20.01;31.48;96994.47;3509301;40;20874;-72
2021/05/31 10:13:02;;;;;;;2.20;1.60;;;;;;;21.21;29.32;96985.63;3507519;40;20464;-72
2021/05/31 10:15:32;;;;;;;5.30;1.90;;;;;;;22.04;28.74;96984.72;3509675;40;20726;-72
2021/05/31 10:18:00;;;;;;;6.47;2.10;;;;;;;21.69;29.38;96985.88;3509991;40;20467;-71
2021/05/31 10:20:30;;;;;;;4.17;1.60;;;;;;;21.43;29.45;96973.53;3508865;40;20451;-71
2021/05/31 10:23:08;;;;;;;3.37;1.77;;;;;;;19.30;30.56;96982.88;3507376;40;20855;-71
2021/05/31 10:25:38;;;;;;;2.43;1.60;;;;;;;21.56;29.99;96974.88;3509003;40;20467;-71
2021/05/31 10:28:08;;;;;;;3.10;1.80;;;;;;;21.03;28.74;96975.09;3507657;40;20495;-72
2021/05/31 10:30:40;;;;;;;8.33;1.90;;;;;;;22.27;29.17;96966.22;3497527;40;20467;-72
2021/05/31 10:33:13;;;;;;;5.00;2.17;;;;;;;22.52;28.99;96966.13;3506160;40;20871;-72
2021/05/31 10:35:40;;;;;;;10.30;2.10;;;;;;;22.90;28.86;96959.16;3507963;40;21202;-73
2021/05/31 10:38:13;;;;;;;21.37;2.63;;;;;;;23.22;28.11;96983.22;3508432;40;20558;-72
2021/05/31 10:40:43;;;;;;;7.90;1.93;;;;;;;22.95;28.33;96971.97;3506826;40;20440;-73
2021/05/31 10:43:13;;;;;;;8.23;1.83;;;;;;;23.32;28.65;96977.66;3507598;40;20447;-73
2021/05/31 10:45:41;;;;;;;2.60;1.80;;;;;;;22.93;28.47;96973.97;3508746;40;20471;-74
2021/05/31 10:48:15;;;;;;;8.50;1.53;;;;;;;22.11;29.16;96968.88;3509479;40;20788;-72
2021/05/31 10:50:44;;;;;;;5.13;1.60;;;;;;;20.56;29.87;96964.88;3507657;40;20470;-72
2021/05/31 10:53:29;;;;;;;4.83;1.90;;;;;;;21.84;27.87;96962.91;3508532;40;21148;-73
2021/05/31 10:55:59;;;;;;;15.07;2.20;;;;;;;23.23;26.79;96968.88;3499572;40;20493;-73
2021/05/31 10:58:31;;;;;;;3.00;1.73;;;;;;;22.42;26.46;96965.50;3498278;40;20848;-73
2021/05/31 11:01:00;;;;;;;3.47;2.00;;;;;;;20.88;28.58;96971.38;3508507;40;20486;-73
2021/05/31 11:03:29;;;;;;;5.97;1.50;;;;;;;21.50;27.88;96971.91;3509155;40;20439;-71
2021/05/31 11:05:57;;;;;;;8.50;2.93;;;;;;;19.55;30.33;96971.50;3508030;40;20765;-71
2021/05/31 11:08:30;;;;;;;8.60;1.50;;;;;;;21.46;30.02;96969.72;3508737;40;20470;-71
2021/05/31 11:11:01;;;;;;;9.70;1.93;;;;;;;23.03;28.18;96966.63;3507136;40;20581;-71
2021/05/31 11:13:29;;;;;;;5.23;1.50;;;;;;;23.95;26.11;96965.84;3507878;40;20479;-70
2021/05/31 11:16:04;;;;;;;17.30;1.90;;;;;;;24.19;24.18;96974.66;3507319;40;20836;-71
2021/05/31 11:18:40;;;;;;;7.83;2.00;;;;;;;19.53;28.86;96980.63;3489867;40;20749;-71
2021/05/31 11:21:09;;;;;;;5.30;1.70;;;;;;;22.45;27.70;96966.00;3505338;40;20581;-71
2021/05/31 11:23:41;;;;;;;4.93;1.80;;;;;;;22.52;26.75;96976.81;3507391;40;20773;-72
2021/05/31 11:26:08;;;;;;;5.73;2.00;;;;;;;23.58;26.83;96971.94;3506258;40;20483;-71
2021/05/31 11:28:36;;;;;;;6.63;1.70;;;;;;;24.39;25.88;96965.09;3507070;40;20542;-72
2021/05/31 11:31:03;;;;;;;39.47;5.63;;;;;;;24.40;24.08;96960.56;3496950;40;20734;-70
2021/05/31 11:33:33;;;;;;;6.77;1.50;;;;;;;23.75;24.12;96967.31;3506485;40;20551;-71
2021/05/31 11:36:01;;;;;;;4.63;2.20;;;;;;;23.78;27.81;96970.50;3507185;40;21527;-72
2021/05/31 11:38:30;;;;;;;2.23;1.73;;;;;;;24.98;23.83;96972.28;3507498;40;20961;-71
2021/05/31 11:41:07;;;;;;;2.77;2.13;;;;;;;21.43;25.96;96968.22;3497762;40;21027;-71
2021/05/31 11:43:35;;;;;;;8.33;1.67;;;;;;;21.32;26.89;96968.50;3504838;40;20483;-71
2021/05/31 11:46:02;;;;;;;4.33;1.97;;;;;;;22.24;27.16;96958.53;3507248;40;20475;-71
2021/05/31 11:48:30;;;;;;;4.53;2.20;;;;;;;22.70;26.28;96957.91;3506830;40;20686;-71
2021/05/31 11:50:57;;;;;;;8.33;2.20;;;;;;;22.48;27.15;96959.47;3505452;40;20919;-70
2021/05/31 11:53:25;;;;;;;6.20;1.60;;;;;;;24.42;26.67;96947.81;3506128;40;20848;-71
2021/05/31 11:55:52;;;;;;;14.43;2.77;;;;;;;25.40;24.56;96940.41;3498458;40;20464;-71